createdAt,value
2019-04-22T00:02:20.700Z,35.23
2019-04-22T00:05:11.509Z,36.05
2019-04-22T00:08:05.176Z,32.40
2019-04-22T00:10:50.265Z,32.63
2019-04-22T00:13:29.175Z,29.12
2019-04-22T00:15:56.668Z,27.65
2019-04-22T00:18:52.989Z,25.97
2019-04-22T00:21:19.537Z,25.35
2019-04-22T00:23:51.731Z,26.50
2019-04-22T00:26:37.473Z,26.07
2019-04-22T00:29:24.135Z,23.12
2019-04-22T00:31:59.008Z,23.45
2019-04-22T00:34:35.926Z,23.80
2019-04-22T00:37:17.559Z,25.05
2019-04-22T00:39:57.787Z,27.67
2019-04-22T00:42:37.504Z,30.35
2019-04-22T00:45:13.071Z,29.90
2019-04-22T00:47:46.158Z,30.17
2019-04-22T00:53:11.671Z,35.30
2019-04-22T00:56:07.411Z,35.03
2019-04-22T00:58:40.777Z,33.63
2019-04-22T01:06:35.887Z,35.30
2019-04-22T01:09:10.987Z,34.33
2019-04-22T01:12:04.074Z,35.70
2019-04-22T01:14:29.781Z,36.98
2019-04-22T01:17:09.577Z,36.03
2019-04-22T01:19:52.648Z,38.23
2019-04-22T01:22:20.748Z,38.45
2019-04-22T01:24:56.441Z,38.70
2019-04-22T01:27:32.411Z,40.35
2019-04-22T01:30:07.416Z,41.33
2019-04-22T01:32:40.114Z,41.60
2019-04-22T01:35:27.497Z,39.60
2019-04-22T01:38:07.794Z,38.73
2019-04-22T01:40:52.827Z,40.83
2019-04-22T01:43:33.366Z,40.33
2019-04-22T01:46:09.760Z,39.67
2019-04-22T01:48:50.590Z,42.73
2019-04-22T01:51:35.595Z,39.60
2019-04-22T01:54:07.044Z,42.00
2019-04-22T01:56:44.919Z,40.92
2019-04-22T01:59:11.250Z,39.78
2019-04-22T02:01:55.180Z,39.40
2019-04-22T02:04:38.399Z,41.90
2019-04-22T02:07:16.777Z,41.85
2019-04-22T02:10:19.539Z,40.83
2019-04-22T02:12:43.219Z,41.13
2019-04-22T02:15:21.050Z,41.00
2019-04-22T02:17:58.024Z,41.63
2019-04-22T02:20:31.474Z,41.73
2019-04-22T02:23:47.130Z,40.78
2019-04-22T02:26:22.798Z,42.13
2019-04-22T02:29:04.673Z,40.48
2019-04-22T02:36:43.252Z,37.63
2019-04-22T02:39:23.975Z,37.48
2019-04-22T02:42:14.122Z,37.08
2019-04-22T02:44:42.621Z,36.77
2019-04-22T02:47:20.836Z,37.67
2019-04-22T02:50:01.757Z,38.50
2019-04-22T02:52:38.861Z,36.33
2019-04-22T02:55:17.153Z,37.70
2019-04-22T02:57:55.490Z,36.80
2019-04-22T03:03:27.623Z,36.73
2019-04-22T03:05:59.134Z,36.68
2019-04-22T03:08:38.047Z,36.80
2019-04-22T03:11:12.489Z,33.33
2019-04-22T03:16:29.761Z,32.10
2019-04-22T03:19:02.879Z,32.13
2019-04-22T03:21:38.832Z,33.45
2019-04-22T03:27:08.160Z,33.55
2019-04-22T03:30:45.525Z,31.80
2019-04-22T03:43:27.313Z,31.37
2019-04-22T03:45:46.375Z,30.23
2019-04-22T03:48:38.204Z,32.60
2019-04-22T03:51:33.732Z,32.05
2019-04-22T03:54:03.271Z,32.75
2019-04-22T03:57:07.125Z,31.93
2019-04-22T03:59:16.214Z,32.23
2019-04-22T04:02:15.723Z,30.12
2019-04-22T04:04:35.999Z,30.88
2019-04-22T04:09:49.952Z,29.77
2019-04-22T04:12:23.749Z,30.02
2019-04-22T04:15:07.418Z,31.75
2019-04-22T04:17:50.127Z,29.87
2019-04-22T04:20:24.329Z,31.00
2019-04-22T04:30:46.298Z,30.32
2019-04-22T04:33:35.817Z,31.10
2019-04-22T04:36:03.410Z,32.95
2019-04-22T04:38:48.125Z,31.05
2019-04-22T04:41:27.055Z,31.15
2019-04-22T04:44:03.731Z,31.80
2019-04-22T04:49:18.551Z,30.62
2019-04-22T04:51:59.553Z,31.50
2019-04-22T04:54:47.891Z,31.48
2019-04-22T04:57:05.017Z,30.32
2019-04-22T05:02:29.103Z,29.55
2019-04-22T05:05:22.977Z,29.50
2019-04-22T05:07:40.556Z,29.02
2019-04-22T05:13:01.150Z,28.70
2019-04-22T05:15:29.856Z,29.02
2019-04-22T05:18:16.589Z,28.92
2019-04-22T05:21:02.880Z,27.55
2019-04-22T05:23:29.994Z,28.70
2019-04-22T05:26:07.291Z,30.32
2019-04-22T05:28:35.067Z,29.85
2019-04-22T05:33:56.442Z,29.27
2019-04-22T05:36:38.465Z,29.52
2019-04-22T05:39:13.965Z,31.07
2019-04-22T05:41:48.702Z,29.10
2019-04-22T05:44:32.606Z,29.77
2019-04-22T05:47:08.030Z,30.92
2019-04-22T05:49:41.532Z,31.05
2019-04-22T05:52:20.361Z,31.10
2019-04-22T05:55:03.607Z,31.23
2019-04-22T05:57:37.271Z,30.68
2019-04-22T06:00:26.806Z,31.93
2019-04-22T06:02:56.645Z,30.68
2019-04-22T06:05:35.747Z,30.88
2019-04-22T06:08:13.247Z,32.95
2019-04-22T06:10:51.956Z,31.48
2019-04-22T06:13:28.042Z,30.50
2019-04-22T06:16:16.121Z,30.68
2019-04-22T06:18:47.019Z,29.52
2019-04-22T06:21:33.697Z,29.87
2019-04-22T06:24:11.159Z,31.42
2019-04-22T06:26:53.854Z,29.75
2019-04-22T06:29:21.704Z,30.10
2019-04-22T06:34:38.921Z,29.63
2019-04-22T06:37:20.701Z,29.40
2019-04-22T06:39:51.001Z,30.55
2019-04-22T06:42:36.253Z,29.45
2019-04-22T06:45:15.241Z,30.57
2019-04-22T06:50:31.457Z,29.42
2019-04-22T06:53:07.109Z,28.15
2019-04-22T06:55:44.361Z,27.67
2019-04-22T06:58:15.200Z,28.95
2019-04-22T07:00:52.138Z,28.17
2019-04-22T07:03:42.760Z,28.50
2019-04-22T07:06:12.668Z,20.12
2019-04-22T07:09:14.039Z,19.25
2019-04-22T07:11:24.705Z,19.17
2019-04-22T07:14:07.090Z,20.80
2019-04-22T07:19:28.108Z,24.57
2019-04-22T07:22:08.486Z,23.95
2019-04-22T07:24:58.298Z,16.55
2019-04-22T07:27:34.242Z,13.10
2019-04-22T07:30:24.980Z,12.78
2019-04-22T07:33:14.783Z,12.43
2019-04-22T07:35:36.534Z,9.80
2019-04-22T07:38:11.226Z,9.30
2019-04-22T07:43:39.778Z,8.35
2019-04-22T07:46:10.857Z,10.15
2019-04-22T07:48:49.232Z,9.85
2019-04-22T07:51:20.434Z,11.18
2019-04-22T07:54:01.411Z,11.60
2019-04-22T07:56:36.508Z,10.80
2019-04-22T07:59:26.520Z,12.85
2019-04-22T08:01:55.904Z,12.53
2019-04-22T08:04:50.101Z,13.38
2019-04-22T08:07:16.116Z,13.32
2019-04-22T08:10:00.311Z,13.95
2019-04-22T08:12:36.553Z,13.55
2019-04-22T08:15:05.781Z,14.05
2019-04-22T08:25:45.045Z,12.95
2019-04-22T08:28:26.294Z,12.40
2019-04-22T08:30:59.961Z,10.63
2019-04-22T08:36:25.622Z,11.20
2019-04-22T08:39:00.850Z,11.38
2019-04-22T08:41:33.486Z,11.50
2019-04-22T08:44:20.387Z,10.85
2019-04-22T08:46:48.660Z,10.25
2019-04-22T08:49:39.126Z,9.85
2019-04-22T08:52:10.788Z,9.13
2019-04-22T08:54:49.045Z,9.00
2019-04-22T08:57:26.061Z,10.13
2019-04-22T09:02:38.736Z,10.78
2019-04-22T09:08:14.323Z,10.98
2019-04-22T09:10:48.659Z,10.00
2019-04-22T09:13:29.766Z,9.50
2019-04-22T09:16:08.785Z,9.53
2019-04-22T09:18:45.988Z,10.38
2019-04-22T09:21:30.323Z,10.70
2019-04-22T09:24:00.769Z,10.28
2019-04-22T09:26:36.232Z,11.10
2019-04-22T09:29:23.587Z,10.63
2019-04-22T09:31:56.193Z,11.38
2019-04-22T09:34:27.742Z,11.53
2019-04-22T09:37:12.009Z,13.05
2019-04-22T09:39:53.436Z,12.60
2019-04-22T09:42:24.783Z,12.25
2019-04-22T09:45:00.219Z,11.75
2019-04-22T09:47:55.601Z,13.48
2019-04-22T09:50:15.328Z,13.25
2019-04-22T09:52:53.153Z,14.18
2019-04-22T09:55:37.693Z,12.47
2019-04-22T09:58:20.902Z,13.03
2019-04-22T10:01:22.718Z,13.45
2019-04-22T10:12:02.214Z,19.80
2019-04-22T10:14:36.590Z,22.60
2019-04-22T10:17:04.697Z,24.00
2019-04-22T10:19:41.168Z,21.27
2019-04-22T10:22:27.994Z,19.57
2019-04-22T10:25:01.235Z,24.40
2019-04-22T10:27:32.759Z,19.85
2019-04-22T10:30:15.143Z,20.15
2019-04-22T10:32:47.839Z,19.65
2019-04-22T10:35:17.286Z,16.07
2019-04-22T10:37:50.226Z,16.62
2019-04-22T10:40:36.442Z,14.78
2019-04-22T10:43:15.230Z,12.98
2019-04-22T10:45:52.280Z,12.35
2019-04-22T10:51:28.942Z,13.50
2019-04-22T10:54:07.288Z,13.38
2019-04-22T10:56:45.125Z,14.00
2019-04-22T10:59:22.688Z,15.28
2019-04-22T11:01:59.277Z,15.40
2019-04-22T11:04:36.750Z,13.40
2019-04-22T11:07:13.557Z,13.03
2019-04-22T11:09:59.042Z,12.50
2019-04-22T11:12:31.894Z,11.22
2019-04-22T11:15:09.740Z,11.35
2019-04-22T11:17:47.263Z,11.97
2019-04-22T11:20:24.228Z,11.85
2019-04-22T11:23:00.752Z,10.90
2019-04-22T11:25:37.335Z,11.38
2019-04-22T11:28:15.856Z,12.50
2019-04-22T11:30:52.649Z,11.88
2019-04-22T11:33:30.434Z,12.95
2019-04-22T11:36:08.055Z,13.75
2019-04-22T11:38:49.764Z,13.20
2019-04-22T11:41:23.543Z,13.18
2019-04-22T11:44:01.309Z,11.80
2019-04-22T11:46:39.078Z,10.72
2019-04-22T11:49:16.556Z,11.10
2019-04-22T11:51:54.216Z,10.35
2019-04-22T11:54:30.770Z,9.65
2019-04-22T11:57:07.462Z,11.08
2019-04-22T11:59:45.028Z,10.75
2019-04-22T12:02:25.233Z,11.53
2019-04-22T12:05:01.889Z,12.23
2019-04-22T12:07:40.419Z,12.45
2019-04-22T12:10:29.896Z,11.95
2019-04-22T12:12:57.809Z,13.08
2019-04-22T12:15:35.070Z,12.93
2019-04-22T12:18:13.011Z,13.28
2019-04-22T12:20:50.953Z,14.05
2019-04-22T12:23:27.438Z,13.50
2019-04-22T12:26:09.222Z,13.00
2019-04-22T12:28:42.312Z,12.37
2019-04-22T12:31:19.621Z,11.97
2019-04-22T12:33:57.315Z,12.80
2019-04-22T12:36:33.051Z,12.80
2019-04-22T12:39:11.614Z,12.98
2019-04-22T12:41:48.176Z,13.15
2019-04-22T12:44:24.491Z,12.53
2019-04-22T12:47:02.598Z,12.73
2019-04-22T12:49:40.644Z,12.10
2019-04-22T12:52:24.335Z,11.60
2019-04-22T12:54:55.093Z,11.83
2019-04-22T12:57:34.729Z,12.28
2019-04-22T13:00:13.624Z,12.10
2019-04-22T13:02:51.389Z,10.93
2019-04-22T13:05:29.197Z,11.10
2019-04-22T13:11:12.157Z,10.63
2019-04-22T13:16:40.855Z,9.73
2019-04-22T13:19:21.050Z,9.58
2019-04-22T13:21:59.015Z,8.88
2019-04-22T13:24:37.590Z,9.13
2019-04-22T13:27:17.217Z,9.10
2019-04-22T13:29:57.140Z,8.93
2019-04-22T13:32:36.798Z,8.75
2019-04-22T13:35:19.532Z,8.58
2019-04-22T13:37:59.239Z,8.73
2019-04-22T13:40:37.490Z,8.78
2019-04-22T13:43:16.780Z,8.40
2019-04-22T13:45:56.169Z,8.25
2019-04-22T13:48:59.103Z,8.50
2019-04-22T13:51:45.074Z,8.05
2019-04-22T13:56:55.132Z,8.00
2019-04-22T13:59:26.153Z,7.83
2019-04-22T14:02:12.764Z,8.20
2019-04-22T14:04:52.663Z,8.00
2019-04-22T14:07:32.816Z,7.83
2019-04-22T14:10:12.279Z,8.65
2019-04-22T14:12:51.305Z,8.68
2019-04-22T14:15:31.867Z,8.45
2019-04-22T14:18:12.845Z,8.38
2019-04-22T14:20:52.173Z,8.20
2019-04-22T14:23:32.954Z,8.80
2019-04-22T14:26:11.599Z,8.98
2019-04-22T14:28:50.587Z,9.80
2019-04-22T14:31:30.593Z,9.80
2019-04-22T14:34:10.213Z,10.08
2019-04-22T14:36:49.349Z,10.00
2019-04-22T14:39:28.503Z,9.30
2019-04-22T14:42:28.470Z,10.38
2019-04-22T14:47:51.320Z,10.03
2019-04-22T14:50:29.337Z,9.95
2019-04-22T14:53:11.220Z,11.08
2019-04-22T14:55:30.771Z,11.03
2019-04-22T14:58:08.989Z,9.08
2019-04-22T15:00:49.309Z,8.28
2019-04-22T15:03:28.692Z,7.67
2019-04-22T15:06:08.390Z,7.75
2019-04-22T15:08:48.904Z,7.35
2019-04-22T15:11:28.982Z,6.80
2019-04-22T15:14:09.547Z,6.90
2019-04-22T15:17:22.742Z,6.50
2019-04-22T15:20:19.623Z,5.67
2019-04-22T15:22:59.097Z,5.40
2019-04-22T15:25:38.595Z,4.33
2019-04-22T15:28:17.697Z,4.60
2019-04-22T15:30:57.368Z,4.05
2019-04-22T15:33:37.460Z,4.53
2019-04-22T15:36:17.854Z,4.83
2019-04-22T15:38:57.581Z,3.92
2019-04-22T15:41:36.799Z,3.92
2019-04-22T15:44:15.761Z,3.83
2019-04-22T15:46:55.097Z,3.52
2019-04-22T15:49:34.043Z,2.95
2019-04-22T15:52:14.509Z,3.30
2019-04-22T15:54:54.019Z,3.25
2019-04-22T15:57:36.490Z,3.35
2019-04-22T16:00:25.052Z,3.25
2019-04-22T16:02:55.034Z,2.83
2019-04-22T16:05:34.229Z,2.60
2019-04-22T16:08:13.059Z,2.72
2019-04-22T16:10:52.002Z,2.70
2019-04-22T16:13:34.021Z,2.37
2019-04-22T16:16:12.255Z,2.12
2019-04-22T16:18:50.721Z,2.25
2019-04-22T16:21:38.020Z,2.45
2019-04-22T16:24:29.724Z,2.75
2019-04-22T16:27:14.199Z,3.90
2019-04-22T16:29:52.966Z,4.83
2019-04-22T16:32:32.538Z,5.33
2019-04-22T16:35:12.680Z,5.85
2019-04-22T16:37:52.661Z,5.50
2019-04-22T16:40:32.511Z,5.62
2019-04-22T16:43:11.950Z,5.20
2019-04-22T16:45:51.818Z,3.92
2019-04-22T16:48:31.522Z,4.70
2019-04-22T16:51:11.791Z,4.00
2019-04-22T16:53:50.887Z,4.37
2019-04-22T16:56:33.113Z,4.20
2019-04-22T16:59:10.752Z,4.30
2019-04-22T17:02:08.827Z,4.83
2019-04-22T17:05:05.133Z,4.83
2019-04-22T17:07:44.404Z,5.45
2019-04-22T17:10:23.830Z,5.87
2019-04-22T17:13:07.824Z,5.90
2019-04-22T17:15:42.905Z,6.22
2019-04-22T17:18:21.703Z,7.50
2019-04-22T17:21:03.280Z,7.25
2019-04-22T17:23:41.379Z,8.00
2019-04-22T17:26:20.720Z,8.25
2019-04-22T17:29:02.569Z,7.22
2019-04-22T17:31:42.049Z,7.62
2019-04-22T17:34:19.516Z,7.00
2019-04-22T17:36:59.218Z,6.92
2019-04-22T17:39:49.169Z,7.05
2019-04-22T17:42:36.275Z,6.12
2019-04-22T17:45:38.925Z,5.90
2019-04-22T17:48:44.869Z,6.40
2019-04-22T17:51:30.063Z,5.85
2019-04-22T17:54:02.343Z,5.33
2019-04-22T17:56:46.874Z,6.25
2019-04-22T17:59:20.357Z,6.20
2019-04-22T18:01:56.664Z,6.08
2019-04-22T18:04:20.036Z,6.05
2019-04-22T18:07:23.439Z,5.78
2019-04-22T18:10:23.406Z,5.40
2019-04-22T18:12:45.614Z,6.17
2019-04-22T18:15:19.407Z,5.83
2019-04-22T18:18:10.315Z,6.37
2019-04-22T18:20:34.713Z,6.35
2019-04-22T18:23:09.625Z,6.58
2019-04-22T18:26:00.269Z,6.72
2019-04-22T18:28:45.253Z,6.75
2019-04-22T18:31:15.560Z,7.30
2019-04-22T18:33:54.543Z,7.28
2019-04-22T18:36:34.514Z,7.55
2019-04-22T18:39:22.607Z,6.70
2019-04-22T18:42:00.443Z,6.87
2019-04-22T18:44:39.884Z,7.45
2019-04-22T18:47:14.580Z,7.35
2019-04-22T18:49:56.697Z,7.33
2019-04-22T18:53:10.962Z,6.85
2019-04-22T18:55:50.437Z,6.45
2019-04-22T18:58:30.224Z,6.92
2019-04-22T19:00:57.765Z,5.90
2019-04-22T19:03:47.654Z,6.45
2019-04-22T19:09:22.138Z,6.17
2019-04-22T19:12:07.961Z,6.15
2019-04-22T19:14:45.196Z,5.80
2019-04-22T19:17:45.968Z,5.97
2019-04-22T19:20:27.207Z,6.37
2019-04-22T19:22:57.439Z,5.55
2019-04-22T19:25:29.041Z,5.30
2019-04-22T19:28:27.675Z,5.83
2019-04-22T19:34:20.921Z,5.87
2019-04-22T19:37:05.521Z,6.37
2019-04-22T19:39:42.327Z,6.12
2019-04-22T19:42:30.733Z,6.05
2019-04-22T19:45:13.279Z,5.78
2019-04-22T19:48:16.095Z,6.37
2019-04-22T19:50:51.989Z,5.83
2019-04-22T19:53:32.258Z,5.87
2019-04-22T19:55:59.849Z,5.85
2019-04-22T19:58:44.418Z,5.70
2019-04-22T20:01:45.919Z,5.95
2019-04-22T20:04:46.178Z,6.10
2019-04-22T20:07:16.087Z,5.83
2019-04-22T20:10:00.081Z,6.17
2019-04-22T20:12:41.146Z,6.70
2019-04-22T20:15:18.661Z,6.72
2019-04-22T20:18:22.391Z,5.78
2019-04-22T20:20:49.290Z,6.22
2019-04-22T20:23:21.018Z,6.50
2019-04-22T20:25:56.239Z,6.37
2019-04-22T20:28:41.876Z,6.35
2019-04-22T20:31:27.762Z,6.90
2019-04-22T20:34:07.798Z,6.80
2019-04-22T20:36:58.397Z,6.90
2019-04-22T20:39:28.363Z,6.50
2019-04-22T20:42:23.404Z,7.20
2019-04-22T20:44:55.105Z,6.85
2019-04-22T20:47:25.230Z,6.67
2019-04-22T20:50:12.215Z,6.75
2019-04-22T20:52:54.040Z,6.53
2019-04-22T20:55:25.446Z,7.60
2019-04-22T20:58:13.358Z,7.05
2019-04-22T21:00:45.270Z,7.75
2019-04-22T21:03:24.251Z,7.62
2019-04-22T21:06:08.705Z,7.20
2019-04-22T21:08:50.361Z,7.47
2019-04-22T21:11:30.007Z,6.72
2019-04-22T21:14:09.969Z,7.50
2019-04-22T21:16:54.175Z,7.37
2019-04-22T21:19:40.377Z,7.45
2019-04-22T21:22:14.642Z,8.13
2019-04-22T21:24:49.262Z,7.05
2019-04-22T21:27:35.720Z,7.65
2019-04-22T21:30:14.414Z,6.85
2019-04-22T21:32:53.469Z,6.83
2019-04-22T21:35:51.854Z,7.15
2019-04-22T21:38:14.580Z,7.60
2019-04-22T21:40:56.383Z,7.12
2019-04-22T21:43:35.919Z,8.15
2019-04-22T21:46:30.919Z,7.22
2019-04-22T21:48:52.794Z,7.10
2019-04-22T21:51:40.003Z,7.95
2019-04-22T21:54:15.461Z,7.95
2019-04-22T21:57:14.022Z,7.28
2019-04-22T21:59:44.825Z,6.92
2019-04-22T22:02:28.387Z,7.92
2019-04-22T22:04:58.239Z,7.65
2019-04-22T22:07:28.850Z,7.62
2019-04-22T22:10:24.292Z,8.33
2019-04-22T22:13:05.209Z,8.80
2019-04-22T22:15:42.244Z,9.70
2019-04-22T22:18:19.995Z,10.23
2019-04-22T22:21:34.962Z,10.08
2019-04-22T22:24:01.644Z,9.70
2019-04-22T22:26:40.178Z,9.68
2019-04-22T22:29:32.181Z,10.90
2019-04-22T22:31:58.398Z,10.32
2019-04-22T22:34:32.816Z,10.93
2019-04-22T22:37:08.510Z,9.35
2019-04-22T22:39:45.994Z,10.78
2019-04-22T22:42:22.430Z,10.85
2019-04-22T22:45:07.816Z,11.03
2019-04-22T22:47:53.578Z,11.35
2019-04-22T22:50:31.417Z,9.93
2019-04-22T22:55:58.017Z,11.03
2019-04-22T22:58:42.561Z,10.93
2019-04-22T23:01:14.992Z,11.22
2019-04-22T23:03:56.033Z,11.63
2019-04-22T23:06:39.086Z,12.35
2019-04-22T23:09:23.008Z,11.55
2019-04-22T23:12:06.454Z,12.70
2019-04-22T23:14:40.886Z,11.60
2019-04-22T23:17:03.845Z,13.32
2019-04-22T23:19:41.925Z,12.82
2019-04-22T23:22:26.791Z,11.75
2019-04-22T23:25:23.409Z,13.22
2019-04-22T23:28:06.279Z,12.10
2019-04-22T23:30:46.090Z,10.20
2019-04-22T23:33:43.841Z,10.43
2019-04-22T23:36:45.318Z,9.90
2019-04-22T23:39:33.892Z,10.25
2019-04-22T23:42:18.250Z,11.50
2019-04-22T23:44:50.353Z,11.08
2019-04-22T23:47:30.976Z,11.30
2019-04-22T23:50:21.661Z,10.65
2019-04-22T23:52:58.420Z,12.35
2019-04-22T23:55:37.392Z,11.43
2019-04-22T23:58:35.469Z,11.57
